createdAt,value
2022-11-30T00:02:13.004Z,47.38
2022-11-30T00:05:03.097Z,47.52
2022-11-30T00:07:51.891Z,47.48
2022-11-30T00:10:42.998Z,47.57
2022-11-30T00:13:31.860Z,47.61
2022-11-30T00:16:20.653Z,47.36
2022-11-30T00:19:09.476Z,47.18
2022-11-30T00:21:59.471Z,47.30
2022-11-30T00:24:48.551Z,47.71
2022-11-30T00:27:37.572Z,47.26
2022-11-30T00:30:26.277Z,47.58
2022-11-30T00:33:14.981Z,47.48
2022-11-30T00:36:05.593Z,47.85
2022-11-30T00:38:55.698Z,47.37
2022-11-30T00:41:44.291Z,47.50
2022-11-30T00:44:32.906Z,47.35
2022-11-30T00:47:21.641Z,47.67
2022-11-30T00:50:11.342Z,47.61
2022-11-30T00:52:59.871Z,47.54
2022-11-30T00:55:50.403Z,47.52
2022-11-30T00:58:39.012Z,47.26
2022-11-30T01:01:27.677Z,47.55
2022-11-30T01:04:16.334Z,47.25
2022-11-30T01:07:04.896Z,47.79
2022-11-30T01:09:53.479Z,47.93
2022-11-30T01:12:43.534Z,47.98
2022-11-30T01:15:32.264Z,47.42
2022-11-30T01:18:20.912Z,47.77
2022-11-30T01:21:10.587Z,48.04
2022-11-30T01:23:59.204Z,47.99
2022-11-30T01:26:47.915Z,47.86
2022-11-30T01:29:37.952Z,47.87
2022-11-30T01:32:26.658Z,47.63
2022-11-30T01:35:15.390Z,47.49
2022-11-30T01:38:04.020Z,47.68
2022-11-30T01:40:52.958Z,47.54
2022-11-30T01:43:43.871Z,47.66
2022-11-30T01:46:37.234Z,47.64
2022-11-30T01:49:30.427Z,47.66
2022-11-30T01:52:21.447Z,47.64
2022-11-30T01:55:16.502Z,47.44
2022-11-30T01:58:07.779Z,47.93
2022-11-30T02:00:56.562Z,48.01
2022-11-30T02:03:50.877Z,47.80
2022-11-30T02:06:39.451Z,48.05
2022-11-30T02:09:28.739Z,47.68
2022-11-30T02:12:24.491Z,47.83
2022-11-30T02:15:14.452Z,47.98
2022-11-30T02:18:08.554Z,47.55
2022-11-30T02:21:09.026Z,48.16
2022-11-30T02:24:24.409Z,47.82
2022-11-30T02:27:22.019Z,48.00
2022-11-30T02:30:13.738Z,47.60
2022-11-30T02:33:05.455Z,48.10
2022-11-30T02:35:55.536Z,47.63
2022-11-30T02:38:44.328Z,47.81
2022-11-30T02:41:38.403Z,47.89
2022-11-30T02:44:27.358Z,47.57
2022-11-30T02:47:24.499Z,47.90
2022-11-30T02:50:16.275Z,47.46
2022-11-30T02:53:05.190Z,48.13
2022-11-30T02:55:55.275Z,47.98
2022-11-30T02:58:44.252Z,48.00
2022-11-30T03:01:32.952Z,47.96
2022-11-30T03:04:23.020Z,47.88
2022-11-30T03:07:11.729Z,47.61
2022-11-30T03:10:01.471Z,47.76
2022-11-30T03:12:50.052Z,47.92
2022-11-30T03:15:41.561Z,47.74
2022-11-30T03:18:30.222Z,47.63
2022-11-30T03:21:20.326Z,48.14
2022-11-30T03:24:09.729Z,48.07
2022-11-30T03:26:58.334Z,48.18
2022-11-30T03:29:46.982Z,47.96
2022-11-30T03:32:35.585Z,48.11
2022-11-30T03:35:24.226Z,47.71
2022-11-30T03:38:14.254Z,48.23
2022-11-30T03:41:03.352Z,48.25
2022-11-30T03:43:52.029Z,48.15
2022-11-30T03:46:40.842Z,48.17
2022-11-30T03:49:29.493Z,48.29
2022-11-30T03:52:18.124Z,48.09
2022-11-30T03:55:09.564Z,48.08
2022-11-30T03:57:58.172Z,47.79
2022-11-30T04:00:46.815Z,48.25
2022-11-30T04:03:35.913Z,47.61
2022-11-30T04:06:24.514Z,48.08
2022-11-30T04:09:13.200Z,47.69
2022-11-30T04:12:03.131Z,47.89
2022-11-30T04:14:51.727Z,47.89
2022-11-30T04:17:40.392Z,47.94
2022-11-30T04:20:29.050Z,47.88
2022-11-30T04:23:17.726Z,48.10
2022-11-30T04:26:06.953Z,48.02
2022-11-30T04:28:57.002Z,47.93
2022-11-30T04:31:45.682Z,47.79
2022-11-30T04:34:34.316Z,47.78
2022-11-30T04:37:22.913Z,47.91
2022-11-30T04:40:12.295Z,47.88
2022-11-30T04:43:00.963Z,48.00
2022-11-30T04:45:51.183Z,48.17
2022-11-30T04:48:39.848Z,47.80
2022-11-30T04:51:28.454Z,48.15
2022-11-30T04:54:17.058Z,48.13
2022-11-30T04:57:06.473Z,47.90
2022-11-30T04:59:55.026Z,47.87
2022-11-30T05:02:52.144Z,48.06
2022-11-30T05:05:41.657Z,48.15
2022-11-30T05:08:30.251Z,47.94
2022-11-30T05:11:18.961Z,47.98
2022-11-30T05:14:07.536Z,47.88
2022-11-30T05:16:56.129Z,48.08
2022-11-30T05:19:46.119Z,47.76
2022-11-30T05:22:35.259Z,40.11
2022-11-30T05:25:23.882Z,33.77
2022-11-30T05:28:12.746Z,32.66
2022-11-30T05:31:04.451Z,31.41
2022-11-30T05:33:55.125Z,31.39
2022-11-30T05:36:45.110Z,32.25
2022-11-30T05:39:33.743Z,34.19
2022-11-30T05:42:22.428Z,36.41
2022-11-30T05:45:12.277Z,37.61
2022-11-30T05:48:01.031Z,38.32
2022-11-30T05:50:49.636Z,39.19
2022-11-30T05:53:39.962Z,39.43
2022-11-30T05:56:28.615Z,40.31
2022-11-30T05:59:17.230Z,40.75
2022-11-30T06:02:06.042Z,41.08
2022-11-30T06:04:54.709Z,41.67
2022-11-30T06:07:43.381Z,41.89
2022-11-30T06:10:33.442Z,41.99
2022-11-30T06:13:27.439Z,41.94
2022-11-30T06:16:17.520Z,42.48
2022-11-30T06:19:06.188Z,42.29
2022-11-30T06:21:54.818Z,42.85
2022-11-30T06:24:43.653Z,42.93
2022-11-30T06:27:33.948Z,43.17
2022-11-30T06:30:23.033Z,43.32
2022-11-30T06:33:11.570Z,43.34
2022-11-30T06:36:00.453Z,43.58
2022-11-30T06:38:49.014Z,43.51
2022-11-30T06:41:37.601Z,43.93
2022-11-30T06:44:27.649Z,44.13
2022-11-30T06:47:16.469Z,44.11
2022-11-30T06:50:06.322Z,44.13
2022-11-30T06:52:55.847Z,44.48
2022-11-30T06:55:44.485Z,44.70
2022-11-30T06:58:33.170Z,44.24
2022-11-30T07:01:23.734Z,44.65
2022-11-30T07:04:12.433Z,45.05
2022-11-30T07:07:01.080Z,45.20
2022-11-30T07:09:49.679Z,45.08
2022-11-30T07:12:38.276Z,44.96
2022-11-30T07:15:26.902Z,45.10
2022-11-30T07:18:16.863Z,45.44
2022-11-30T07:21:06.655Z,45.53
2022-11-30T07:24:13.128Z,45.74
2022-11-30T07:27:02.466Z,45.32
2022-11-30T07:29:52.465Z,45.68
2022-11-30T07:32:43.573Z,45.41
2022-11-30T07:35:33.605Z,45.42
2022-11-30T07:38:22.398Z,45.32
2022-11-30T07:41:11.140Z,45.27
2022-11-30T07:43:59.831Z,45.22
2022-11-30T07:46:48.452Z,45.72
2022-11-30T07:49:38.963Z,45.56
2022-11-30T07:52:29.046Z,45.85
2022-11-30T07:55:19.901Z,45.46
2022-11-30T07:58:14.206Z,45.61
2022-11-30T08:01:07.451Z,45.87
2022-11-30T08:03:56.669Z,45.62
2022-11-30T08:06:45.372Z,45.67
2022-11-30T08:09:35.536Z,45.72
2022-11-30T08:12:24.222Z,45.50
2022-11-30T08:15:21.462Z,45.66
2022-11-30T08:18:11.426Z,45.53
2022-11-30T08:21:00.936Z,45.74
2022-11-30T08:23:54.056Z,46.09
2022-11-30T08:26:44.127Z,46.10
2022-11-30T08:29:32.744Z,45.51
2022-11-30T08:32:21.554Z,45.64
2022-11-30T08:35:10.920Z,45.62
2022-11-30T08:37:59.652Z,45.65
2022-11-30T08:40:48.226Z,45.79
2022-11-30T08:43:38.476Z,45.76
2022-11-30T08:46:50.293Z,45.64
2022-11-30T08:49:35.677Z,45.66
2022-11-30T08:52:24.312Z,45.91
2022-11-30T08:55:12.979Z,45.87
2022-11-30T08:58:01.605Z,46.10
2022-11-30T09:03:46.290Z,46.04
2022-11-30T09:06:34.864Z,46.03
2022-11-30T09:09:23.604Z,45.89
2022-11-30T09:12:12.292Z,46.18
2022-11-30T09:15:01.103Z,46.10
2022-11-30T09:17:54.199Z,46.23
2022-11-30T09:20:42.816Z,46.61
2022-11-30T09:23:31.639Z,46.59
2022-11-30T09:26:23.751Z,46.26
2022-11-30T09:29:12.385Z,46.38
2022-11-30T09:32:01.101Z,46.15
2022-11-30T09:34:51.351Z,46.17
2022-11-30T09:37:40.301Z,46.19
2022-11-30T09:40:34.120Z,46.38
2022-11-30T09:43:32.554Z,46.55
2022-11-30T09:46:26.218Z,46.62
2022-11-30T09:49:19.817Z,46.50
2022-11-30T09:52:14.337Z,46.40
2022-11-30T09:55:06.518Z,45.97
2022-11-30T09:57:57.439Z,46.49
2022-11-30T10:00:46.118Z,46.09
2022-11-30T10:03:35.057Z,45.93
2022-11-30T10:06:28.544Z,46.06
2022-11-30T10:09:32.634Z,45.79
2022-11-30T10:12:28.463Z,46.05
2022-11-30T10:15:27.132Z,46.21
2022-11-30T10:18:22.508Z,45.73
2022-11-30T10:21:23.474Z,46.14
2022-11-30T10:24:24.099Z,46.48
2022-11-30T10:27:18.603Z,46.14
2022-11-30T10:30:17.592Z,45.96
2022-11-30T10:33:15.518Z,46.20
2022-11-30T10:36:07.050Z,46.64
2022-11-30T10:39:02.018Z,46.26
2022-11-30T10:41:54.324Z,46.69
2022-11-30T10:44:47.175Z,46.29
2022-11-30T10:47:37.716Z,46.40
2022-11-30T10:50:28.288Z,46.34
2022-11-30T10:53:17.005Z,46.27
2022-11-30T10:56:09.764Z,46.54
2022-11-30T10:59:00.717Z,46.42
2022-11-30T11:01:52.693Z,46.58
2022-11-30T11:04:41.383Z,46.49
2022-11-30T11:07:30.692Z,46.95
2022-11-30T11:10:21.499Z,47.02
2022-11-30T11:13:17.719Z,46.92
2022-11-30T11:16:08.615Z,46.53
2022-11-30T11:18:59.285Z,46.86
2022-11-30T11:21:49.650Z,46.61
2022-11-30T11:24:38.347Z,46.54
2022-11-30T11:27:29.338Z,46.64
2022-11-30T11:30:29.460Z,46.62
2022-11-30T11:33:21.880Z,46.26
2022-11-30T11:36:27.107Z,46.47
2022-11-30T11:39:26.911Z,46.27
2022-11-30T11:42:20.649Z,46.65
2022-11-30T11:45:18.468Z,46.48
2022-11-30T11:48:11.774Z,46.63
2022-11-30T11:51:07.596Z,46.55
2022-11-30T11:53:59.160Z,46.44
2022-11-30T11:56:51.293Z,46.57
2022-11-30T11:59:47.669Z,46.66
2022-11-30T12:02:39.524Z,46.55
2022-11-30T12:05:30.436Z,46.91
2022-11-30T12:08:25.991Z,46.87
2022-11-30T12:11:18.852Z,46.50
2022-11-30T12:14:12.668Z,46.82
2022-11-30T12:17:11.370Z,46.70
2022-11-30T12:20:06.907Z,46.38
2022-11-30T12:23:10.089Z,46.77
2022-11-30T12:26:06.949Z,46.15
2022-11-30T12:29:11.617Z,46.24
2022-11-30T12:32:08.607Z,46.74
2022-11-30T12:35:06.880Z,46.91
2022-11-30T12:38:06.638Z,46.70
2022-11-30T12:41:02.119Z,46.52
2022-11-30T12:43:59.463Z,46.90
2022-11-30T12:46:54.431Z,46.60
2022-11-30T12:49:54.207Z,46.37
2022-11-30T12:52:50.039Z,46.58
2022-11-30T12:55:42.038Z,46.51
2022-11-30T12:58:38.650Z,46.68
2022-11-30T13:01:41.179Z,46.59
2022-11-30T13:04:34.891Z,46.69
2022-11-30T13:07:29.035Z,46.56
2022-11-30T13:10:26.681Z,46.56
2022-11-30T13:13:17.907Z,46.40
2022-11-30T13:16:08.069Z,46.81
2022-11-30T13:19:00.940Z,46.69
2022-11-30T13:21:55.347Z,46.71
2022-11-30T13:24:47.370Z,46.55
2022-11-30T13:27:42.372Z,46.65
2022-11-30T13:30:39.696Z,46.37
2022-11-30T13:33:50.490Z,46.75
2022-11-30T13:36:40.279Z,46.45
2022-11-30T13:39:31.368Z,46.31
2022-11-30T13:42:35.808Z,46.47
2022-11-30T13:45:31.314Z,46.73
2022-11-30T13:48:29.767Z,46.54
2022-11-30T13:51:36.712Z,46.60
2022-11-30T13:54:46.789Z,46.66
2022-11-30T13:58:07.649Z,46.61
2022-11-30T14:01:25.366Z,46.72
2022-11-30T14:04:25.234Z,46.67
2022-11-30T14:07:35.763Z,46.41
2022-11-30T14:10:33.226Z,46.57
2022-11-30T14:13:32.276Z,46.48
2022-11-30T14:16:23.979Z,46.34
2022-11-30T14:19:12.656Z,46.20
2022-11-30T14:22:01.796Z,46.60
2022-11-30T14:24:51.275Z,46.33
2022-11-30T14:27:41.547Z,46.52
2022-11-30T14:30:33.572Z,46.65
2022-11-30T14:33:42.115Z,46.21
2022-11-30T14:36:41.899Z,46.21
2022-11-30T14:39:35.274Z,46.36
2022-11-30T14:42:25.307Z,46.48
2022-11-30T14:45:20.888Z,46.70
2022-11-30T14:48:14.915Z,46.47
2022-11-30T14:51:05.230Z,46.52
2022-11-30T14:53:57.010Z,46.03
2022-11-30T14:56:51.964Z,45.86
2022-11-30T14:59:47.912Z,44.63
2022-11-30T15:02:39.314Z,45.12
2022-11-30T15:05:28.078Z,44.46
2022-11-30T15:08:18.740Z,44.29
2022-11-30T15:11:08.825Z,44.08
2022-11-30T15:13:58.734Z,43.96
2022-11-30T15:16:53.203Z,43.69
2022-11-30T15:19:49.588Z,43.94
2022-11-30T15:22:38.483Z,43.83
2022-11-30T15:25:32.285Z,43.72
2022-11-30T15:28:23.809Z,43.46
2022-11-30T15:31:16.909Z,43.26
2022-11-30T15:34:06.427Z,43.18
2022-11-30T15:36:57.293Z,43.00
2022-11-30T15:39:50.180Z,43.32
2022-11-30T15:42:40.927Z,42.86
2022-11-30T15:45:31.756Z,42.68
2022-11-30T15:48:29.584Z,42.17
2022-11-30T15:51:28.747Z,42.29
2022-11-30T15:54:18.772Z,42.24
2022-11-30T15:57:09.204Z,41.57
2022-11-30T16:00:07.983Z,41.28
2022-11-30T16:03:09.144Z,41.03
2022-11-30T16:05:59.176Z,41.04
2022-11-30T16:08:48.376Z,40.72
2022-11-30T16:11:38.688Z,41.32
2022-11-30T16:14:27.714Z,41.48
2022-11-30T16:17:16.467Z,41.51
2022-11-30T16:20:05.410Z,41.26
2022-11-30T16:22:54.022Z,41.65
2022-11-30T16:25:44.200Z,41.41
2022-11-30T16:28:34.295Z,41.63
2022-11-30T16:31:23.461Z,41.91
2022-11-30T16:34:13.371Z,42.27
2022-11-30T16:37:02.069Z,42.52
2022-11-30T16:39:51.184Z,42.48
2022-11-30T16:42:42.492Z,43.44
2022-11-30T16:45:36.161Z,43.15
2022-11-30T16:48:24.895Z,43.23
2022-11-30T16:51:19.373Z,43.43
2022-11-30T16:54:08.104Z,43.36
2022-11-30T16:56:56.888Z,42.98
2022-11-30T16:59:45.671Z,43.38
2022-11-30T17:02:36.252Z,43.22
2022-11-30T17:05:24.943Z,43.80
2022-11-30T17:08:13.590Z,43.60
2022-11-30T17:11:02.274Z,43.61
2022-11-30T17:13:51.279Z,43.81
2022-11-30T17:16:41.903Z,43.57
2022-11-30T17:19:31.992Z,43.64
2022-11-30T17:22:20.633Z,43.70
2022-11-30T17:25:10.951Z,43.41
2022-11-30T17:28:00.223Z,43.67
2022-11-30T17:30:49.167Z,43.26
2022-11-30T17:33:39.103Z,43.51
2022-11-30T17:36:31.376Z,43.36
2022-11-30T17:39:20.029Z,43.26
2022-11-30T17:42:08.788Z,43.46
2022-11-30T17:44:57.682Z,43.64
2022-11-30T17:47:46.473Z,43.19
2022-11-30T17:50:35.307Z,43.07
2022-11-30T17:53:25.488Z,43.29
2022-11-30T17:56:16.367Z,43.28
2022-11-30T17:59:05.365Z,43.61
2022-11-30T18:01:56.592Z,43.41
2022-11-30T18:04:45.565Z,43.42
2022-11-30T18:07:34.445Z,43.66
2022-11-30T18:10:24.817Z,43.64
2022-11-30T18:13:13.843Z,44.16
2022-11-30T18:16:08.783Z,43.92
2022-11-30T18:18:58.622Z,43.76
2022-11-30T18:21:48.115Z,45.24
2022-11-30T18:24:36.948Z,45.41
2022-11-30T18:27:27.731Z,45.84
2022-11-30T18:30:17.539Z,46.41
2022-11-30T18:33:06.230Z,46.61
2022-11-30T18:35:59.846Z,46.88
2022-11-30T18:38:48.953Z,46.76
2022-11-30T18:41:37.799Z,47.30
2022-11-30T18:44:27.955Z,47.56
2022-11-30T18:47:16.832Z,47.67
2022-11-30T18:50:06.124Z,47.72
2022-11-30T18:52:55.801Z,47.50
2022-11-30T18:55:44.418Z,47.83
2022-11-30T18:58:33.081Z,48.10
2022-11-30T19:01:23.141Z,48.10
2022-11-30T19:04:12.431Z,47.85
2022-11-30T19:07:01.081Z,48.40
2022-11-30T19:09:50.327Z,48.11
2022-11-30T19:12:38.955Z,48.23
2022-11-30T19:15:27.739Z,48.92
2022-11-30T19:18:21.864Z,48.48
2022-11-30T19:21:13.725Z,48.94
2022-11-30T19:24:02.685Z,49.08
2022-11-30T19:26:51.495Z,48.97
2022-11-30T19:29:40.093Z,48.73
2022-11-30T19:32:29.488Z,49.23
2022-11-30T19:35:19.588Z,49.10
2022-11-30T19:38:08.332Z,48.84
2022-11-30T19:40:57.208Z,49.14
2022-11-30T19:43:52.475Z,49.08
2022-11-30T19:46:43.719Z,48.94
2022-11-30T19:49:32.405Z,49.14
2022-11-30T19:52:22.371Z,49.10
2022-11-30T19:55:11.501Z,49.43
2022-11-30T19:58:00.530Z,49.23
2022-11-30T20:00:50.526Z,49.29
2022-11-30T20:03:39.497Z,49.49
2022-11-30T20:06:29.685Z,49.80
2022-11-30T20:09:19.815Z,49.61
2022-11-30T20:12:08.521Z,49.32
2022-11-30T20:15:04.992Z,49.74
2022-11-30T20:17:54.450Z,49.58
2022-11-30T20:20:43.081Z,49.42
2022-11-30T20:23:31.741Z,49.63
2022-11-30T20:26:24.001Z,50.05
2022-11-30T20:29:15.001Z,49.81
2022-11-30T20:32:03.732Z,49.80
2022-11-30T20:34:52.493Z,49.75
2022-11-30T20:37:41.167Z,49.75
2022-11-30T20:40:29.836Z,49.90
2022-11-30T20:43:20.679Z,50.02
2022-11-30T20:46:17.145Z,49.93
2022-11-30T20:49:14.951Z,50.13
2022-11-30T20:52:03.821Z,50.22
2022-11-30T20:54:52.571Z,50.18
2022-11-30T20:57:41.285Z,49.94
2022-11-30T21:00:31.368Z,50.40
2022-11-30T21:03:19.979Z,50.29
2022-11-30T21:06:09.347Z,50.04
2022-11-30T21:08:57.998Z,50.17
2022-11-30T21:11:47.406Z,50.25
2022-11-30T21:14:36.291Z,50.28
2022-11-30T21:17:26.352Z,50.30
2022-11-30T21:20:15.180Z,50.39
2022-11-30T21:23:03.787Z,50.37
2022-11-30T21:25:52.419Z,49.82
2022-11-30T21:28:41.163Z,49.75
2022-11-30T21:31:29.860Z,50.54
2022-11-30T21:34:20.040Z,50.22
2022-11-30T21:37:08.655Z,50.48
2022-11-30T21:39:57.613Z,50.19
2022-11-30T21:42:46.258Z,50.55
2022-11-30T21:45:35.158Z,50.61
2022-11-30T21:48:23.879Z,50.50
2022-11-30T21:51:16.076Z,51.18
2022-11-30T21:54:07.250Z,51.29
2022-11-30T21:56:55.893Z,51.10
2022-11-30T21:59:44.505Z,51.41
2022-11-30T22:02:33.371Z,51.21
2022-11-30T22:05:22.047Z,51.07
2022-11-30T22:08:12.096Z,51.23
2022-11-30T22:11:04.360Z,51.35
2022-11-30T22:13:54.330Z,51.53
2022-11-30T22:16:43.459Z,51.62
2022-11-30T22:19:32.080Z,51.17
2022-11-30T22:22:20.700Z,51.36
2022-11-30T22:25:11.149Z,51.21
2022-11-30T22:27:59.866Z,51.24
2022-11-30T22:30:48.495Z,51.17
2022-11-30T22:33:38.436Z,51.36
2022-11-30T22:36:28.707Z,51.37
2022-11-30T22:39:19.288Z,51.60
2022-11-30T22:42:09.255Z,51.13
2022-11-30T22:45:00.083Z,51.10
2022-11-30T22:47:48.653Z,51.13
2022-11-30T22:50:37.313Z,51.54
2022-11-30T22:53:26.078Z,51.28
2022-11-30T22:56:16.235Z,51.15
2022-11-30T22:59:06.770Z,51.61
2022-11-30T23:01:55.470Z,51.59
2022-11-30T23:04:44.149Z,51.62
2022-11-30T23:07:32.931Z,51.04
2022-11-30T23:10:21.625Z,51.45
2022-11-30T23:13:10.268Z,51.59
2022-11-30T23:16:01.040Z,51.31
2022-11-30T23:18:51.789Z,51.47
2022-11-30T23:21:42.277Z,51.55
2022-11-30T23:24:31.053Z,51.39
2022-11-30T23:27:19.723Z,51.47
2022-11-30T23:30:10.356Z,51.40
2022-11-30T23:33:03.069Z,51.67
2022-11-30T23:35:51.765Z,51.71
2022-11-30T23:38:40.434Z,51.70
2022-11-30T23:41:29.312Z,51.39
2022-11-30T23:44:18.297Z,51.26
2022-11-30T23:47:07.432Z,51.46
2022-11-30T23:49:57.682Z,51.70
2022-11-30T23:52:46.418Z,51.42
2022-11-30T23:55:36.492Z,51.42
2022-11-30T23:58:25.475Z,51.24
